Time;durP1;ratioP1;P1;durP2;ratioP2;P2;SDS_P1;SDS_P2;PMS_P1;PMS_P2;Temp;Humidity;BMP_temperature;BMP_pressure;BME280_temperature;BME280_humidity;BME280_pressure;Samples;Min_cycle;Max_cycle;Signal;HPM_P1;HPM_P2
2022/06/25 00:01:15;;;;;;;3.20;2.97;;;17.20;91.40;;;;;;5077150;28;20454;-74
2022/06/25 00:03:42;;;;;;;3.50;2.77;;;17.10;91.60;;;;;;5086677;28;20245;-74
2022/06/25 00:06:08;;;;;;;3.87;3.33;;;17.10;91.80;;;;;;5098057;28;20427;-74
2022/06/25 00:08:35;;;;;;;4.00;3.07;;;17.10;92.10;;;;;;5102011;28;20418;-75
2022/06/25 00:11:02;;;;;;;3.40;2.90;;;17.10;92.40;;;;;;5089160;28;20468;-74
2022/06/25 00:13:28;;;;;;;3.53;2.97;;;17.10;92.00;;;;;;5083035;28;20416;-74
2022/06/25 00:15:54;;;;;;;4.03;3.00;;;17.10;92.00;;;;;;5090853;28;20941;-74
2022/06/25 00:18:19;;;;;;;3.10;2.67;;;17.10;91.90;;;;;;5072628;28;20184;-74
2022/06/25 00:20:46;;;;;;;3.90;3.13;;;17.10;91.90;;;;;;5088539;28;20449;-72
2022/06/25 00:23:11;;;;;;;4.27;3.10;;;17.10;92.00;;;;;;5083853;28;20280;-73
2022/06/25 00:25:38;;;;;;;4.43;2.93;;;17.00;92.10;;;;;;5082048;28;20465;-74
2022/06/25 00:28:04;;;;;;;4.27;3.20;;;16.90;92.50;;;;;;5090830;28;20433;-75
2022/06/25 00:30:31;;;;;;;5.90;3.57;;;16.90;92.40;;;;;;5095757;28;20433;-73
2022/06/25 00:32:57;;;;;;;4.47;3.33;;;17.00;92.20;;;;;;5085738;28;20451;-73
2022/06/25 00:35:23;;;;;;;6.30;3.33;;;16.90;92.30;;;;;;5089115;28;20429;-74
2022/06/25 00:37:49;;;;;;;3.37;2.83;;;16.80;92.40;;;;;;5095653;28;20198;-75
2022/06/25 00:40:14;;;;;;;5.20;2.90;;;16.80;92.50;;;;;;5086112;28;20449;-74
2022/06/25 00:42:44;;;;;;;4.80;3.87;;;16.80;92.60;;;;;;5089783;28;20228;-73
2022/06/25 00:45:10;;;;;;;4.13;3.27;;;16.70;92.60;;;;;;5068359;28;20175;-73
2022/06/25 00:47:36;;;;;;;3.80;2.93;;;16.70;92.90;;;;;;5080539;28;20932;-74
2022/06/25 00:50:02;;;;;;;3.80;2.97;;;16.70;93.00;;;;;;5086031;28;20554;-73
2022/06/25 00:52:32;;;;;;;4.03;3.43;;;16.70;93.00;;;;;;5083440;28;20432;-75
2022/06/25 00:55:07;;;;;;;4.17;2.90;;;16.70;92.90;;;;;;5078134;28;20508;-73
2022/06/25 00:57:35;;;;;;;3.70;2.97;;;16.70;92.70;;;;;;5085213;28;20435;-74
2022/06/25 01:00:07;;;;;;;3.07;2.60;;;16.70;92.50;;;;;;5090279;28;20571;-73
2022/06/25 01:02:34;;;;;;;5.00;3.10;;;16.70;92.60;;;;;;5083097;28;20495;-73
2022/06/25 01:04:59;;;;;;;5.10;3.13;;;16.70;92.50;;;;;;5079896;28;20461;-74
2022/06/25 01:07:25;;;;;;;3.87;2.83;;;16.70;92.40;;;;;;5081074;28;20778;-74
2022/06/25 01:09:52;;;;;;;6.70;2.80;;;16.70;92.10;;;;;;5084904;28;20209;-73
2022/06/25 01:12:17;;;;;;;5.17;3.10;;;16.70;92.30;;;;;;5086717;28;20185;-73
2022/06/25 01:14:43;;;;;;;4.00;2.70;;;16.70;92.20;;;;;;5087746;28;20425;-73
2022/06/25 01:17:10;;;;;;;5.43;2.83;;;16.70;92.30;;;;;;5083066;28;20201;-73
2022/06/25 01:19:36;;;;;;;5.90;2.80;;;16.60;92.30;;;;;;5083380;28;20508;-74
2022/06/25 01:22:06;;;;;;;7.10;3.20;;;16.60;92.20;;;;;;5086200;28;20482;-73
2022/06/25 01:24:32;;;;;;;2.63;2.30;;;16.60;92.30;;;;;;5072910;28;20449;-74
2022/06/25 01:26:59;;;;;;;8.37;2.70;;;16.60;92.40;;;;;;5074710;28;20428;-74
2022/06/25 01:29:25;;;;;;;3.40;2.70;;;16.60;92.40;;;;;;5083187;28;20522;-74
2022/06/25 01:31:51;;;;;;;6.13;2.73;;;16.60;92.30;;;;;;5082679;28;20469;-73
2022/06/25 01:34:17;;;;;;;3.60;2.43;;;16.60;92.20;;;;;;5091304;28;20429;-74
2022/06/25 01:36:43;;;;;;;5.93;2.63;;;16.60;92.00;;;;;;5083662;28;20421;-73
2022/06/25 01:39:09;;;;;;;3.90;2.70;;;16.60;92.00;;;;;;5085699;28;20421;-72
2022/06/25 01:41:35;;;;;;;3.97;2.37;;;16.60;91.90;;;;;;5087954;28;20943;-73
2022/06/25 01:44:01;;;;;;;4.63;2.80;;;16.60;91.90;;;;;;5084589;28;20476;-73
2022/06/25 01:46:26;;;;;;;4.37;3.00;;;16.60;91.80;;;;;;5088512;28;20192;-73
2022/06/25 01:48:52;;;;;;;2.97;2.80;;;16.60;91.70;;;;;;5082461;28;20184;-74
2022/06/25 01:51:20;;;;;;;8.13;2.73;;;16.60;91.80;;;;;;5082659;28;20262;-73
2022/06/25 01:53:45;;;;;;;5.67;2.93;;;16.60;91.50;;;;;;5090895;28;20517;-73
2022/06/25 01:56:11;;;;;;;4.60;2.60;;;16.60;91.50;;;;;;5082702;28;20520;-74
2022/06/25 01:58:37;;;;;;;8.03;2.23;;;16.60;91.50;;;;;;5083073;28;20179;-74
2022/06/25 02:01:05;;;;;;;3.63;2.60;;;16.60;91.60;;;;;;5088878;28;20454;-73
2022/06/25 02:03:32;;;;;;;6.57;2.93;;;16.60;91.60;;;;;;5091016;28;20460;-74
2022/06/25 02:05:58;;;;;;;2.97;2.80;;;16.60;91.60;;;;;;5080539;28;20484;-73
2022/06/25 02:08:30;;;;;;;5.80;2.70;;;16.60;91.50;;;;;;5091011;28;20470;-72
2022/06/25 02:10:57;;;;;;;4.63;2.63;;;16.60;91.60;;;;;;5079125;28;20452;-74
2022/06/25 02:13:24;;;;;;;3.33;2.50;;;16.60;91.60;;;;;;5091678;28;20433;-74
2022/06/25 02:15:50;;;;;;;5.43;2.87;;;16.60;91.50;;;;;;5096789;28;20490;-74
2022/06/25 02:18:16;;;;;;;4.27;2.90;;;16.50;91.50;;;;;;5096603;28;20425;-74
2022/06/25 02:20:42;;;;;;;4.90;2.60;;;16.50;91.70;;;;;;5096916;28;20440;-74
2022/06/25 02:23:11;;;;;;;4.23;2.73;;;16.50;91.50;;;;;;5085825;28;20281;-74
2022/06/25 02:25:37;;;;;;;2.63;2.40;;;16.50;91.60;;;;;;5083007;28;20422;-74
2022/06/25 02:28:03;;;;;;;6.43;2.47;;;16.50;91.60;;;;;;5082237;28;20421;-74
2022/06/25 02:30:29;;;;;;;5.00;2.47;;;16.50;91.70;;;;;;5084744;28;20453;-74
2022/06/25 02:32:55;;;;;;;3.60;2.60;;;16.50;91.80;;;;;;5081471;28;20425;-75
2022/06/25 02:35:21;;;;;;;3.07;2.50;;;16.50;91.80;;;;;;5084818;28;20527;-72
2022/06/25 02:37:46;;;;;;;4.10;2.70;;;16.50;91.70;;;;;;5071531;28;20182;-73
2022/06/25 02:40:12;;;;;;;3.63;2.67;;;16.50;91.60;;;;;;5078294;28;20446;-72
2022/06/25 02:42:39;;;;;;;3.43;2.83;;;16.50;91.50;;;;;;5088157;28;20312;-73
2022/06/25 02:45:06;;;;;;;4.27;2.43;;;16.50;91.40;;;;;;5081360;28;20192;-74
2022/06/25 02:47:33;;;;;;;4.70;2.60;;;16.50;91.30;;;;;;5090049;28;20419;-74
2022/06/25 02:49:59;;;;;;;2.70;2.13;;;16.50;91.50;;;;;;5079434;28;20444;-73
2022/06/25 02:52:25;;;;;;;5.93;2.57;;;16.50;91.50;;;;;;5071807;28;20511;-72
2022/06/25 02:54:51;;;;;;;5.90;3.30;;;16.50;91.60;;;;;;5081320;28;20930;-73
2022/06/25 03:00:02;;;;;;;3.83;2.87;;;16.50;91.70;;;;;;5084390;28;20352;-73
2022/06/25 03:02:28;;;;;;;4.20;2.77;;;16.40;91.90;;;;;;5075258;28;20475;-74
2022/06/25 03:04:54;;;;;;;6.50;3.07;;;16.40;92.10;;;;;;5091915;28;20774;-73
2022/06/25 03:07:20;;;;;;;3.70;3.10;;;16.30;92.30;;;;;;5076242;28;20186;-72
2022/06/25 03:09:46;;;;;;;4.43;2.50;;;16.20;92.50;;;;;;5085444;28;20539;-74
2022/06/25 03:12:12;;;;;;;4.40;3.20;;;16.20;92.70;;;;;;5088469;28;20187;-74
2022/06/25 03:14:38;;;;;;;4.63;3.13;;;16.10;92.70;;;;;;5094384;28;20189;-73
2022/06/25 03:17:04;;;;;;;3.83;2.90;;;16.10;92.70;;;;;;5096770;28;20449;-73
2022/06/25 03:19:30;;;;;;;4.40;2.97;;;16.20;92.50;;;;;;5087174;28;20417;-73
2022/06/25 03:21:56;;;;;;;2.87;2.47;;;16.10;92.50;;;;;;5092926;28;20461;-72
2022/06/25 03:24:21;;;;;;;6.03;3.73;;;16.20;92.40;;;;;;5076119;28;20181;-73
2022/06/25 03:26:47;;;;;;;3.07;2.80;;;16.20;92.30;;;;;;5086101;28;20422;-72
2022/06/25 03:29:13;;;;;;;3.70;3.00;;;16.20;92.20;;;;;;5082141;28;20318;-73
2022/06/25 03:31:39;;;;;;;4.67;3.33;;;16.30;92.00;;;;;;5086554;28;20713;-74
2022/06/25 03:34:06;;;;;;;5.00;2.80;;;16.20;92.20;;;;;;5094938;28;20191;-72
2022/06/25 03:36:32;;;;;;;3.50;2.90;;;16.10;92.40;;;;;;5085966;28;20474;-73
2022/06/25 03:38:58;;;;;;;5.10;3.17;;;16.10;92.50;;;;;;5082649;28;20421;-73
2022/06/25 03:41:33;;;;;;;3.20;2.57;;;16.10;92.10;;;;;;5084958;28;20494;-73
2022/06/25 03:44:03;;;;;;;4.10;3.00;;;16.10;92.30;;;;;;5094113;28;20562;-73
2022/06/25 03:46:29;;;;;;;3.80;2.87;;;16.10;92.50;;;;;;5093079;28;20892;-73
2022/06/25 03:48:55;;;;;;;3.83;3.03;;;16.10;92.50;;;;;;5081863;28;20975;-73
2022/06/25 03:51:21;;;;;;;2.63;2.47;;;16.00;92.50;;;;;;5084877;28;20438;-73
2022/06/25 03:53:47;;;;;;;3.53;2.70;;;16.00;92.70;;;;;;5074676;28;20431;-74
2022/06/25 03:56:13;;;;;;;2.30;2.20;;;16.10;92.70;;;;;;5071060;28;20429;-72
2022/06/25 03:58:39;;;;;;;4.50;2.90;;;16.10;92.30;;;;;;5088318;28;20199;-73
2022/06/25 04:01:05;;;;;;;3.20;2.77;;;16.20;92.00;;;;;;5092168;28;20224;-73
2022/06/25 04:03:30;;;;;;;3.70;3.20;;;16.30;91.60;;;;;;5096042;28;20264;-73
2022/06/25 04:05:57;;;;;;;4.13;3.10;;;16.20;91.80;;;;;;5085942;28;20425;-73
2022/06/25 04:08:24;;;;;;;6.00;3.03;;;16.20;91.90;;;;;;5084124;28;20269;-73
2022/06/25 04:10:50;;;;;;;3.87;2.90;;;16.20;92.20;;;;;;5086629;28;20442;-73
2022/06/25 04:13:15;;;;;;;4.10;3.07;;;16.20;92.20;;;;;;5090447;28;20450;-73
2022/06/25 04:15:41;;;;;;;5.07;3.00;;;16.10;92.10;;;;;;5091031;28;20200;-74
2022/06/25 04:18:07;;;;;;;8.70;2.73;;;16.10;92.30;;;;;;5090860;28;20211;-73
2022/06/25 04:20:34;;;;;;;4.10;3.10;;;16.10;92.40;;;;;;5094109;28;20207;-73
2022/06/25 04:23:00;;;;;;;4.60;3.43;;;16.00;92.40;;;;;;5085545;28;20519;-73
2022/06/25 04:25:26;;;;;;;5.10;2.90;;;16.00;92.50;;;;;;5086304;28;20424;-74
2022/06/25 04:30:36;;;;;;;6.50;3.60;;;16.20;92.50;;;;;;5090333;28;20482;-74
2022/06/25 04:33:02;;;;;;;8.50;3.23;;;16.30;92.30;;;;;;5091796;28;20429;-73
2022/06/25 04:35:28;;;;;;;3.60;3.10;;;16.30;92.20;;;;;;5091642;28;20602;-73
2022/06/25 04:37:53;;;;;;;3.03;2.40;;;16.30;92.00;;;;;;5084008;28;20191;-74
2022/06/25 04:40:19;;;;;;;3.30;2.50;;;16.40;92.00;;;;;;5083866;28;20209;-73
2022/06/25 04:42:46;;;;;;;4.00;3.07;;;16.50;92.10;;;;;;5091363;28;20861;-73
2022/06/25 04:45:12;;;;;;;6.90;2.93;;;16.60;92.00;;;;;;5079135;28;20745;-72
2022/06/25 04:47:38;;;;;;;4.10;3.20;;;16.70;91.80;;;;;;5077469;28;20423;-74
2022/06/25 04:50:05;;;;;;;3.97;3.10;;;16.80;91.20;;;;;;5091177;28;20213;-74
2022/06/25 04:52:31;;;;;;;3.80;2.90;;;16.80;91.00;;;;;;5083228;28;20427;-73
2022/06/25 04:54:57;;;;;;;4.43;2.67;;;16.80;90.80;;;;;;5091569;28;20470;-74
2022/06/25 04:57:23;;;;;;;3.60;2.90;;;16.90;90.90;;;;;;5084322;28;20268;-73
2022/06/25 04:59:48;;;;;;;4.00;2.60;;;17.00;90.00;;;;;;5078832;28;20488;-73
2022/06/25 05:02:14;;;;;;;9.60;3.43;;;17.00;89.90;;;;;;5087108;28;20202;-74
2022/06/25 05:04:40;;;;;;;12.67;3.10;;;17.00;89.90;;;;;;5087852;28;20178;-73
2022/06/25 05:07:06;;;;;;;5.47;3.10;;;17.10;90.10;;;;;;5083047;28;20417;-74
2022/06/25 05:09:33;;;;;;;5.20;2.77;;;17.10;90.10;;;;;;5082745;28;20225;-74
2022/06/25 05:11:59;;;;;;;3.93;2.90;;;17.10;90.20;;;;;;5058636;28;20432;-74
2022/06/25 05:14:25;;;;;;;7.33;2.83;;;17.20;90.40;;;;;;5083444;28;20771;-75
2022/06/25 05:16:51;;;;;;;3.00;2.23;;;17.30;90.10;;;;;;5090865;28;20423;-73
2022/06/25 05:19:16;;;;;;;3.30;2.40;;;17.40;89.90;;;;;;5091439;28;20181;-75
2022/06/25 05:21:42;;;;;;;3.60;2.40;;;17.50;89.20;;;;;;5082331;28;20199;-74
2022/06/25 05:24:08;;;;;;;3.20;2.60;;;17.50;88.70;;;;;;5082869;28;20732;-76
2022/06/25 05:26:35;;;;;;;3.33;2.47;;;17.50;88.90;;;;;;5073162;28;20217;-74
2022/06/25 05:29:00;;;;;;;3.73;2.37;;;17.60;88.90;;;;;;5080793;28;20905;-74
2022/06/25 05:31:26;;;;;;;2.47;2.27;;;17.70;88.30;;;;;;5082446;28;20206;-75
2022/06/25 05:33:52;;;;;;;3.50;2.30;;;17.70;88.10;;;;;;5078375;28;20191;-75
2022/06/25 05:36:18;;;;;;;3.47;2.30;;;17.60;88.90;;;;;;5073535;28;20588;-75
2022/06/25 05:38:44;;;;;;;2.57;2.40;;;17.70;88.40;;;;;;5084637;28;20192;-73
2022/06/25 05:41:10;;;;;;;3.93;2.47;;;17.80;88.30;;;;;;5065737;28;20207;-74
2022/06/25 05:43:40;;;;;;;3.40;2.33;;;17.90;88.00;;;;;;5091056;28;20469;-74
2022/06/25 05:46:06;;;;;;;2.47;2.27;;;17.90;87.70;;;;;;5080928;28;20806;-74
2022/06/25 05:48:32;;;;;;;3.33;2.93;;;17.90;87.80;;;;;;5083306;28;20899;-74
2022/06/25 05:50:58;;;;;;;4.83;2.50;;;18.00;87.30;;;;;;5067361;28;20493;-74
2022/06/25 05:53:25;;;;;;;2.17;1.97;;;18.10;86.90;;;;;;5085319;28;20422;-74
2022/06/25 05:55:51;;;;;;;4.07;2.20;;;18.20;86.30;;;;;;5084259;28;20424;-75
2022/06/25 05:58:18;;;;;;;3.03;2.10;;;18.30;85.90;;;;;;5090779;28;20433;-75
2022/06/25 06:00:44;;;;;;;3.60;2.70;;;18.20;86.20;;;;;;5078423;28;20545;-73
2022/06/25 06:03:11;;;;;;;3.60;2.60;;;18.20;86.60;;;;;;5091373;28;20472;-75
2022/06/25 06:05:38;;;;;;;2.57;2.27;;;18.20;86.80;;;;;;5082166;28;20420;-74
2022/06/25 06:08:05;;;;;;;2.30;1.97;;;18.30;86.90;;;;;;5082430;28;20486;-73
2022/06/25 06:10:31;;;;;;;3.93;2.53;;;18.40;86.20;;;;;;5083829;28;20441;-73
2022/06/25 06:12:57;;;;;;;3.83;1.97;;;18.50;86.30;;;;;;5084989;28;20417;-74
2022/06/25 06:15:22;;;;;;;4.53;2.10;;;18.60;86.30;;;;;;5082835;28;20179;-74
2022/06/25 06:17:48;;;;;;;5.33;2.43;;;18.70;86.00;;;;;;5089268;28;20195;-76
2022/06/25 06:20:14;;;;;;;2.60;2.40;;;18.70;85.00;;;;;;5086718;28;20263;-74
2022/06/25 06:22:39;;;;;;;3.40;2.40;;;18.80;84.10;;;;;;5091758;28;20228;-73
2022/06/25 06:25:05;;;;;;;3.57;2.23;;;18.80;83.40;;;;;;5085074;28;20271;-73
2022/06/25 06:27:31;;;;;;;4.30;2.20;;;18.80;83.40;;;;;;5086588;28;20241;-73
2022/06/25 06:29:57;;;;;;;3.03;2.20;;;18.80;82.80;;;;;;5074443;28;20442;-74
2022/06/25 06:32:22;;;;;;;3.30;2.00;;;18.90;84.10;;;;;;5086322;28;20228;-73
2022/06/25 06:34:48;;;;;;;3.53;2.73;;;19.00;83.70;;;;;;5094641;28;20641;-74
2022/06/25 06:37:14;;;;;;;5.57;2.70;;;19.00;83.10;;;;;;5094935;28;20176;-74
2022/06/25 06:39:40;;;;;;;3.00;2.20;;;19.10;82.10;;;;;;5087142;28;20195;-73
2022/06/25 06:42:06;;;;;;;3.00;2.60;;;19.10;83.00;;;;;;5073507;28;20517;-74
2022/06/25 06:44:32;;;;;;;4.00;2.40;;;19.10;83.30;;;;;;5083933;28;20419;-73
2022/06/25 06:46:57;;;;;;;4.47;2.60;;;19.20;83.00;;;;;;5089847;28;20425;-74
2022/06/25 06:49:23;;;;;;;4.60;2.80;;;19.30;82.50;;;;;;5082981;28;20211;-74
2022/06/25 06:51:49;;;;;;;3.93;2.47;;;19.20;82.70;;;;;;5079171;28;20294;-74
2022/06/25 06:54:15;;;;;;;2.63;2.40;;;19.20;83.10;;;;;;5081372;28;20211;-74
2022/06/25 06:56:40;;;;;;;4.00;2.53;;;19.30;82.70;;;;;;5086246;28;20187;-74
2022/06/25 06:59:08;;;;;;;2.50;2.30;;;19.40;81.90;;;;;;5081928;28;20190;-73
2022/06/25 07:01:34;;;;;;;4.70;2.73;;;19.50;81.20;;;;;;5082665;28;20218;-73
2022/06/25 07:03:59;;;;;;;3.67;2.20;;;19.60;80.80;;;;;;5082551;28;20514;-74
2022/06/25 07:06:25;;;;;;;3.43;2.20;;;19.70;80.90;;;;;;5086987;28;20432;-73
2022/06/25 07:08:51;;;;;;;3.57;2.10;;;19.80;80.60;;;;;;5096493;28;20283;-72
2022/06/25 07:11:29;;;;;;;3.73;2.50;;;19.90;78.90;;;;;;5097200;28;20195;-74
2022/06/25 07:13:57;;;;;;;3.40;2.50;;;19.90;78.90;;;;;;5086045;28;20428;-74
2022/06/25 07:16:23;;;;;;;2.80;2.30;;;20.00;78.90;;;;;;5094799;28;20422;-74
2022/06/25 07:18:49;;;;;;;3.43;2.50;;;20.00;79.30;;;;;;5095144;28;20471;-73
2022/06/25 07:21:15;;;;;;;4.00;2.50;;;20.00;79.00;;;;;;5079269;28;20449;-74
2022/06/25 07:23:41;;;;;;;4.60;2.40;;;20.20;78.00;;;;;;5082859;28;20465;-73
2022/06/25 07:26:07;;;;;;;3.03;2.83;;;20.30;78.60;;;;;;5090024;28;20441;-72
2022/06/25 07:28:32;;;;;;;3.03;2.40;;;20.40;77.40;;;;;;5082952;28;20286;-73
2022/06/25 07:30:58;;;;;;;3.50;2.70;;;20.40;77.40;;;;;;5068360;28;20270;-73
2022/06/25 07:33:53;;;;;;;3.57;2.80;;;20.60;77.40;;;;;;5096265;28;20183;-73
2022/06/25 07:36:20;;;;;;;3.93;2.60;;;20.70;76.80;;;;;;5070778;28;20196;-73
2022/06/25 07:38:47;;;;;;;3.17;2.67;;;20.70;76.50;;;;;;5092144;28;21223;-73
2022/06/25 07:41:12;;;;;;;3.10;2.67;;;20.70;77.10;;;;;;5091659;28;20596;-73
2022/06/25 07:43:38;;;;;;;5.10;2.90;;;20.80;77.00;;;;;;5079764;28;20473;-73
2022/06/25 07:46:04;;;;;;;3.70;2.40;;;20.80;76.40;;;;;;5088307;28;20311;-73
2022/06/25 07:48:30;;;;;;;4.33;2.77;;;20.90;76.40;;;;;;5093702;28;20719;-73
2022/06/25 07:53:45;;;;;;;3.10;2.50;;;21.10;74.60;;;;;;5054424;28;20437;-75
2022/06/25 07:56:11;;;;;;;4.67;2.70;;;21.10;74.60;;;;;;5082562;28;20418;-75
2022/06/25 07:58:37;;;;;;;8.00;3.43;;;21.10;74.90;;;;;;5070765;28;20195;-75
2022/06/25 08:01:02;;;;;;;4.67;3.00;;;21.20;75.10;;;;;;5085227;28;20469;-75
2022/06/25 08:03:28;;;;;;;4.00;3.47;;;21.20;74.00;;;;;;5087974;28;20239;-74
2022/06/25 08:05:55;;;;;;;5.50;2.90;;;21.20;73.50;;;;;;5091947;28;20245;-74
2022/06/25 08:08:21;;;;;;;4.03;2.50;;;21.30;73.60;;;;;;5087881;28;20263;-74
2022/06/25 08:10:47;;;;;;;2.60;2.40;;;21.50;73.20;;;;;;5080526;28;20519;-74
2022/06/25 08:13:13;;;;;;;2.80;2.60;;;21.70;72.30;;;;;;5090731;28;20180;-74
2022/06/25 08:15:39;;;;;;;3.10;2.53;;;21.70;72.10;;;;;;5083383;28;20978;-75
2022/06/25 08:18:05;;;;;;;4.20;2.60;;;21.90;71.40;;;;;;5090518;28;20973;-74
2022/06/25 08:20:30;;;;;;;3.40;2.53;;;22.00;71.00;;;;;;5087434;28;20204;-74
2022/06/25 08:22:56;;;;;;;3.20;2.90;;;21.90;71.60;;;;;;5083937;28;20220;-74
2022/06/25 08:25:22;;;;;;;6.03;2.93;;;21.80;72.10;;;;;;5083565;28;20192;-75
2022/06/25 08:27:50;;;;;;;4.20;2.47;;;21.70;72.40;;;;;;5085173;28;20185;-74
2022/06/25 08:30:26;;;;;;;4.13;3.00;;;21.60;72.30;;;;;;5075440;28;20469;-73
2022/06/25 08:32:53;;;;;;;5.47;2.60;;;21.60;72.70;;;;;;5093556;28;20465;-74
2022/06/25 08:35:18;;;;;;;5.10;2.70;;;21.60;73.20;;;;;;5088386;28;20422;-74
2022/06/25 08:37:49;;;;;;;3.30;2.60;;;21.80;73.00;;;;;;5093027;28;20428;-74
2022/06/25 08:40:18;;;;;;;5.00;2.90;;;21.80;72.30;;;;;;5087031;28;20212;-74
2022/06/25 08:42:44;;;;;;;5.80;3.20;;;21.90;72.40;;;;;;5086237;28;21288;-75
2022/06/25 08:45:10;;;;;;;4.20;3.13;;;22.00;72.40;;;;;;5091183;28;20431;-74
2022/06/25 08:47:44;;;;;;;3.13;2.27;;;22.10;72.10;;;;;;5090902;28;20477;-74
2022/06/25 08:50:14;;;;;;;3.37;2.77;;;22.20;71.30;;;;;;5084266;28;20440;-75
2022/06/25 08:52:43;;;;;;;3.53;2.80;;;22.20;70.70;;;;;;5092821;28;20810;-74
2022/06/25 08:55:13;;;;;;;6.00;2.77;;;22.20;71.40;;;;;;5085119;28;20422;-75
2022/06/25 08:57:38;;;;;;;3.93;2.60;;;22.40;71.00;;;;;;5083459;28;20421;-74
2022/06/25 09:00:05;;;;;;;3.90;2.80;;;22.50;69.90;;;;;;5084758;28;20443;-72
2022/06/25 09:02:31;;;;;;;3.33;2.73;;;22.60;69.20;;;;;;5087584;28;20226;-75
2022/06/25 09:04:57;;;;;;;2.97;2.80;;;22.80;67.30;;;;;;5074625;28;20432;-74
2022/06/25 09:07:22;;;;;;;2.87;2.70;;;22.70;68.20;;;;;;5090687;28;20182;-74
2022/06/25 09:09:51;;;;;;;3.80;2.60;;;22.70;68.80;;;;;;5069500;28;20437;-74
2022/06/25 09:12:18;;;;;;;5.07;2.70;;;22.60;67.70;;;;;;5089959;28;20271;-74
2022/06/25 09:14:44;;;;;;;5.17;2.63;;;22.60;67.90;;;;;;5088890;28;20473;-74
2022/06/25 09:17:14;;;;;;;4.90;3.00;;;22.60;67.70;;;;;;5073790;28;20422;-75
2022/06/25 09:19:41;;;;;;;6.80;2.97;;;22.60;68.00;;;;;;5084130;28;20516;-75
2022/06/25 09:22:10;;;;;;;3.50;2.83;;;22.60;68.50;;;;;;5074423;28;20423;-74
2022/06/25 09:24:59;;;;;;;6.23;3.03;;;22.80;68.30;;;;;;5086026;28;20413;-74
2022/06/25 09:27:33;;;;;;;6.43;3.00;;;22.90;68.20;;;;;;5068372;28;20421;-74
2022/06/25 09:30:20;;;;;;;5.63;3.03;;;23.10;67.70;;;;;;5082242;28;20427;-76
2022/06/25 09:32:47;;;;;;;3.10;2.70;;;23.20;67.00;;;;;;5071383;28;20489;-74
2022/06/25 09:35:14;;;;;;;3.30;2.90;;;23.40;66.70;;;;;;5083627;28;20416;-74
2022/06/25 09:37:40;;;;;;;5.30;3.03;;;23.20;67.00;;;;;;5087968;28;20466;-74
2022/06/25 09:40:09;;;;;;;3.70;3.07;;;23.10;67.20;;;;;;5073814;28;20459;-74
2022/06/25 09:42:35;;;;;;;4.63;3.43;;;23.20;67.30;;;;;;5085128;28;20477;-74
2022/06/25 09:45:05;;;;;;;4.00;2.70;;;23.30;66.90;;;;;;5071027;28;20879;-75
2022/06/25 09:47:35;;;;;;;4.60;2.60;;;23.20;67.00;;;;;;5092417;28;20425;-74
2022/06/25 09:50:17;;;;;;;3.43;2.00;;;23.30;67.60;;;;;;5073356;28;20958;-75
2022/06/25 09:52:56;;;;;;;4.37;2.57;;;23.50;64.80;;;;;;5087341;28;20852;-75
2022/06/25 09:55:25;;;;;;;2.40;2.17;;;23.60;63.50;;;;;;5085763;28;20421;-75
2022/06/25 09:57:52;;;;;;;3.17;2.60;;;23.60;64.50;;;;;;5080549;28;20429;-73
2022/06/25 10:00:22;;;;;;;3.17;2.70;;;23.80;64.80;;;;;;5098650;28;20440;-74
2022/06/25 10:02:49;;;;;;;2.90;2.40;;;23.90;64.40;;;;;;5100638;28;20991;-75
2022/06/25 10:05:25;;;;;;;4.93;2.77;;;24.00;63.70;;;;;;5101776;28;20425;-73
2022/06/25 10:08:01;;;;;;;4.13;2.90;;;23.80;63.20;;;;;;5086143;28;20481;-73
2022/06/25 10:10:31;;;;;;;2.70;2.40;;;23.70;63.70;;;;;;5087030;28;20434;-74
2022/06/25 10:12:57;;;;;;;3.80;2.60;;;23.90;62.90;;;;;;5081530;28;20988;-74
2022/06/25 10:15:23;;;;;;;3.40;2.20;;;24.00;62.80;;;;;;5091026;28;20423;-73
2022/06/25 10:17:54;;;;;;;2.97;2.30;;;24.20;62.00;;;;;;5092186;28;20242;-74
2022/06/25 10:20:20;;;;;;;4.03;2.80;;;24.50;61.70;;;;;;5082754;28;20477;-75
2022/06/25 10:22:49;;;;;;;5.67;2.57;;;24.80;61.00;;;;;;5090931;28;20460;-75
2022/06/25 10:25:23;;;;;;;4.53;3.00;;;25.00;59.90;;;;;;5091200;28;20416;-75
2022/06/25 10:28:02;;;;;;;3.70;2.30;;;25.20;60.00;;;;;;5082934;28;20431;-74
2022/06/25 10:30:37;;;;;;;3.23;2.47;;;25.50;57.70;;;;;;5083250;28;20923;-74
2022/06/25 10:33:03;;;;;;;4.10;3.00;;;25.80;56.10;;;;;;5080637;28;20767;-73
2022/06/25 10:35:34;;;;;;;4.00;2.77;;;25.90;56.10;;;;;;5081127;28;20775;-74
2022/06/25 10:38:08;;;;;;;3.90;2.60;;;26.30;55.00;;;;;;5086851;28;20454;-74
2022/06/25 10:40:55;;;;;;;6.67;2.50;;;26.60;54.20;;;;;;5063801;28;20449;-75
2022/06/25 10:43:40;;;;;;;4.17;2.30;;;26.80;54.00;;;;;;5074700;28;20502;-75
2022/06/25 10:46:24;;;;;;;3.73;2.70;;;27.00;54.40;;;;;;5086526;28;20500;-74
2022/06/25 10:49:17;;;;;;;3.27;2.90;;;27.40;52.20;;;;;;5080105;28;20420;-74
2022/06/25 10:51:48;;;;;;;4.27;2.80;;;27.00;52.80;;;;;;5085672;28;20439;-75
2022/06/25 10:54:23;;;;;;;6.13;3.00;;;26.80;51.60;;;;;;5076557;28;20426;-75
2022/06/25 10:56:58;;;;;;;6.13;2.43;;;26.70;51.80;;;;;;5079850;28;20449;-75
2022/06/25 10:59:35;;;;;;;2.90;2.30;;;26.30;54.40;;;;;;5091998;28;20422;-74
2022/06/25 11:02:07;;;;;;;3.50;2.60;;;26.60;52.60;;;;;;5073851;28;20445;-75
2022/06/25 11:04:34;;;;;;;4.00;2.33;;;26.90;52.50;;;;;;5087142;28;20988;-74
2022/06/25 11:07:09;;;;;;;4.37;2.33;;;27.10;51.20;;;;;;5082447;28;20455;-75
2022/06/25 11:09:37;;;;;;;3.53;2.93;;;27.10;51.20;;;;;;5087851;28;20434;-73
2022/06/25 11:12:04;;;;;;;5.20;2.80;;;27.00;52.50;;;;;;5088620;28;20481;-75
2022/06/25 11:14:30;;;;;;;4.40;2.50;;;27.30;51.70;;;;;;5079243;28;20448;-75
2022/06/25 11:16:56;;;;;;;4.67;2.80;;;27.50;50.10;;;;;;5088222;28;20557;-74
2022/06/25 11:19:23;;;;;;;4.23;3.33;;;27.30;49.90;;;;;;5115220;28;20181;-74
2022/06/25 11:21:49;;;;;;;4.67;2.77;;;26.60;51.20;;;;;;5116987;28;20224;-75
2022/06/25 11:24:24;;;;;;;3.70;2.80;;;26.50;52.40;;;;;;5100142;28;20529;-75
2022/06/25 11:29:48;;;;;;;3.30;2.40;;;26.80;50.90;;;;;;5087089;28;20512;-73
2022/06/25 11:32:25;;;;;;;3.23;2.57;;;27.30;48.50;;;;;;5090632;28;20423;-73
2022/06/25 11:35:01;;;;;;;6.53;2.40;;;27.40;49.10;;;;;;5093709;28;20428;-73
2022/06/25 11:37:29;;;;;;;3.50;3.13;;;27.40;48.90;;;;;;5084928;28;20522;-74
2022/06/25 11:39:55;;;;;;;3.70;2.77;;;27.10;50.20;;;;;;5093849;28;20482;-74
2022/06/25 11:42:21;;;;;;;3.00;2.13;;;26.60;50.90;;;;;;5085974;28;20428;-75
2022/06/25 11:44:49;;;;;;;3.43;2.43;;;26.80;49.40;;;;;;5092451;28;20192;-74
2022/06/25 11:47:18;;;;;;;2.73;2.20;;;27.10;49.50;;;;;;5080044;28;20417;-74
2022/06/25 11:49:44;;;;;;;6.33;2.80;;;27.10;47.90;;;;;;5093527;28;20420;-74
2022/06/25 11:52:11;;;;;;;4.37;2.53;;;27.10;47.40;;;;;;5090238;28;20512;-74
2022/06/25 11:54:38;;;;;;;3.83;2.27;;;27.40;46.30;;;;;;5084542;28;20269;-74
2022/06/25 11:57:06;;;;;;;4.00;2.37;;;27.30;47.80;;;;;;5084302;28;20484;-74
2022/06/25 11:59:37;;;;;;;4.37;2.63;;;27.70;46.60;;;;;;5085141;28;20428;-74
2022/06/25 12:02:05;;;;;;;7.30;2.80;;;27.80;44.90;;;;;;5090412;28;20879;-74
2022/06/25 12:04:32;;;;;;;2.80;2.27;;;27.70;46.20;;;;;;5084702;28;20546;-74
2022/06/25 12:06:58;;;;;;;2.90;2.60;;;27.90;46.30;;;;;;5074203;28;20427;-72
2022/06/25 12:09:25;;;;;;;4.47;2.37;;;27.60;45.90;;;;;;5093568;28;20468;-74
2022/06/25 12:11:51;;;;;;;6.03;2.67;;;27.40;46.50;;;;;;5078642;28;20441;-75
2022/06/25 12:14:32;;;;;;;2.73;2.10;;;27.60;47.80;;;;;;5093261;28;20423;-74
2022/06/25 12:16:59;;;;;;;2.90;2.63;;;27.20;48.60;;;;;;5082424;28;20436;-74
2022/06/25 12:19:50;;;;;;;2.70;2.40;;;27.60;47.90;;;;;;5080699;28;20438;-74
2022/06/25 12:22:24;;;;;;;2.30;2.00;;;27.90;47.00;;;;;;5085733;28;20429;-74
2022/06/25 12:24:51;;;;;;;4.83;3.20;;;28.20;46.90;;;;;;5081723;28;20860;-74
2022/06/25 12:27:17;;;;;;;2.20;2.00;;;28.50;45.50;;;;;;5073896;28;20466;-75
2022/06/25 12:29:48;;;;;;;2.80;2.23;;;28.40;45.30;;;;;;5092212;28;20471;-74
2022/06/25 12:32:15;;;;;;;1.93;1.83;;;28.40;42.30;;;;;;5087973;28;20429;-75
2022/06/25 12:34:51;;;;;;;3.77;2.23;;;27.50;44.10;;;;;;5092771;28;20448;-75
2022/06/25 12:37:33;;;;;;;2.10;2.00;;;27.80;44.70;;;;;;5087542;28;20417;-74
2022/06/25 12:40:00;;;;;;;13.30;2.13;;;28.40;44.60;;;;;;5097622;28;20485;-74
2022/06/25 12:42:33;;;;;;;2.37;2.07;;;28.90;42.40;;;;;;5073888;28;20915;-74
2022/06/25 12:44:59;;;;;;;3.00;2.17;;;29.30;41.60;;;;;;5086143;28;20437;-74
2022/06/25 12:47:25;;;;;;;2.43;2.30;;;29.10;41.20;;;;;;5087615;28;20415;-74
2022/06/25 12:49:56;;;;;;;2.47;1.97;;;28.70;42.40;;;;;;5087522;28;20442;-73
2022/06/25 12:52:39;;;;;;;3.40;2.33;;;28.90;41.10;;;;;;5092367;28;20471;-74
2022/06/25 12:55:06;;;;;;;3.20;2.73;;;28.10;43.40;;;;;;5087830;28;20420;-74
2022/06/25 12:57:35;;;;;;;2.60;2.40;;;27.50;45.80;;;;;;5084933;28;20423;-75
2022/06/25 13:00:03;;;;;;;2.47;2.13;;;27.20;47.10;;;;;;5086762;28;20441;-75
2022/06/25 13:02:30;;;;;;;2.60;2.37;;;28.10;45.90;;;;;;5094128;28;20437;-74